sensor_id;sensor_type;location;lat;lon;timestamp;P1;durP1;ratioP1;P2;durP2;ratioP2
56911;SDS011;42800;53.928;27.662;2023-09-08T00:00:04;7.95;;;4.18;;
56911;SDS011;42800;53.928;27.662;2023-09-08T00:02:32;8.50;;;3.88;;
56911;SDS011;42800;53.928;27.662;2023-09-08T00:04:58;8.30;;;3.88;;
56911;SDS011;42800;53.928;27.662;2023-09-08T00:07:24;11.68;;;4.55;;
56911;SDS011;42800;53.928;27.662;2023-09-08T00:09:50;8.73;;;3.70;;
56911;SDS011;42800;53.928;27.662;2023-09-08T00:12:16;15.73;;;4.50;;
56911;SDS011;42800;53.928;27.662;2023-09-08T00:14:42;20.90;;;6.07;;
56911;SDS011;42800;53.928;27.662;2023-09-08T00:17:08;11.50;;;4.80;;
56911;SDS011;42800;53.928;27.662;2023-09-08T00:19:34;13.90;;;4.18;;
56911;SDS011;42800;53.928;27.662;2023-09-08T00:22:01;9.98;;;4.35;;
56911;SDS011;42800;53.928;27.662;2023-09-08T00:24:28;9.60;;;3.72;;
56911;SDS011;42800;53.928;27.662;2023-09-08T00:26:54;12.18;;;4.32;;
56911;SDS011;42800;53.928;27.662;2023-09-08T00:29:20;14.27;;;4.30;;
56911;SDS011;42800;53.928;27.662;2023-09-08T00:31:45;11.13;;;3.90;;
56911;SDS011;42800;53.928;27.662;2023-09-08T00:34:11;10.57;;;4.15;;
56911;SDS011;42800;53.928;27.662;2023-09-08T00:36:37;11.38;;;3.80;;
56911;SDS011;42800;53.928;27.662;2023-09-08T00:39:04;11.18;;;4.28;;
56911;SDS011;42800;53.928;27.662;2023-09-08T00:41:30;12.10;;;4.47;;
56911;SDS011;42800;53.928;27.662;2023-09-08T00:43:56;8.73;;;3.88;;
56911;SDS011;42800;53.928;27.662;2023-09-08T00:46:22;6.47;;;3.85;;
56911;SDS011;42800;53.928;27.662;2023-09-08T00:48:48;6.35;;;3.35;;
56911;SDS011;42800;53.928;27.662;2023-09-08T00:51:14;13.48;;;4.32;;
56911;SDS011;42800;53.928;27.662;2023-09-08T00:53:40;8.57;;;3.50;;
56911;SDS011;42800;53.928;27.662;2023-09-08T00:56:07;9.45;;;3.58;;
56911;SDS011;42800;53.928;27.662;2023-09-08T00:58:34;6.57;;;3.83;;
56911;SDS011;42800;53.928;27.662;2023-09-08T01:01:00;13.05;;;4.05;;
56911;SDS011;42800;53.928;27.662;2023-09-08T01:03:26;13.40;;;3.90;;
56911;SDS011;42800;53.928;27.662;2023-09-08T01:05:52;13.77;;;4.70;;
56911;SDS011;42800;53.928;27.662;2023-09-08T01:08:18;10.73;;;3.67;;
56911;SDS011;42800;53.928;27.662;2023-09-08T01:10:45;10.68;;;4.28;;
56911;SDS011;42800;53.928;27.662;2023-09-08T01:13:12;11.90;;;4.88;;
56911;SDS011;42800;53.928;27.662;2023-09-08T01:15:38;11.38;;;4.18;;
56911;SDS011;42800;53.928;27.662;2023-09-08T01:18:04;11.70;;;3.88;;
56911;SDS011;42800;53.928;27.662;2023-09-08T01:20:31;10.50;;;3.95;;
56911;SDS011;42800;53.928;27.662;2023-09-08T01:23:11;14.10;;;4.25;;
56911;SDS011;42800;53.928;27.662;2023-09-08T01:25:47;9.98;;;3.92;;
56911;SDS011;42800;53.928;27.662;2023-09-08T01:28:18;5.43;;;3.50;;
56911;SDS011;42800;53.928;27.662;2023-09-08T01:30:46;7.38;;;3.28;;
56911;SDS011;42800;53.928;27.662;2023-09-08T01:33:13;11.98;;;3.65;;
56911;SDS011;42800;53.928;27.662;2023-09-08T01:35:39;31.92;;;4.57;;
56911;SDS011;42800;53.928;27.662;2023-09-08T01:38:05;11.40;;;3.83;;
56911;SDS011;42800;53.928;27.662;2023-09-08T01:40:31;7.57;;;3.75;;
56911;SDS011;42800;53.928;27.662;2023-09-08T01:42:58;12.77;;;5.65;;
56911;SDS011;42800;53.928;27.662;2023-09-08T01:45:24;17.67;;;5.70;;
56911;SDS011;42800;53.928;27.662;2023-09-08T01:47:50;27.23;;;6.20;;
56911;SDS011;42800;53.928;27.662;2023-09-08T01:50:16;27.42;;;4.90;;
56911;SDS011;42800;53.928;27.662;2023-09-08T01:52:47;11.60;;;4.30;;
56911;SDS011;42800;53.928;27.662;2023-09-08T01:55:13;10.45;;;4.05;;
56911;SDS011;42800;53.928;27.662;2023-09-08T01:57:41;12.88;;;4.43;;
56911;SDS011;42800;53.928;27.662;2023-09-08T02:00:08;12.48;;;4.00;;
56911;SDS011;42800;53.928;27.662;2023-09-08T02:02:35;11.98;;;4.20;;
56911;SDS011;42800;53.928;27.662;2023-09-08T02:05:01;14.63;;;5.38;;
56911;SDS011;42800;53.928;27.662;2023-09-08T02:07:27;11.02;;;4.13;;
56911;SDS011;42800;53.928;27.662;2023-09-08T02:09:53;12.98;;;4.10;;
56911;SDS011;42800;53.928;27.662;2023-09-08T02:12:18;8.90;;;4.03;;
56911;SDS011;42800;53.928;27.662;2023-09-08T02:14:44;12.90;;;3.65;;
56911;SDS011;42800;53.928;27.662;2023-09-08T02:17:11;8.80;;;4.40;;
56911;SDS011;42800;53.928;27.662;2023-09-08T02:19:37;10.60;;;3.90;;
56911;SDS011;42800;53.928;27.662;2023-09-08T02:22:03;9.75;;;3.92;;
56911;SDS011;42800;53.928;27.662;2023-09-08T02:24:29;9.38;;;3.70;;
56911;SDS011;42800;53.928;27.662;2023-09-08T02:26:55;7.03;;;4.13;;
56911;SDS011;42800;53.928;27.662;2023-09-08T02:29:21;13.13;;;4.43;;
56911;SDS011;42800;53.928;27.662;2023-09-08T02:31:47;14.50;;;4.25;;
56911;SDS011;42800;53.928;27.662;2023-09-08T02:34:14;12.52;;;3.95;;
56911;SDS011;42800;53.928;27.662;2023-09-08T02:36:40;12.80;;;3.92;;
56911;SDS011;42800;53.928;27.662;2023-09-08T02:39:06;10.32;;;4.72;;
56911;SDS011;42800;53.928;27.662;2023-09-08T02:41:32;8.77;;;4.07;;
56911;SDS011;42800;53.928;27.662;2023-09-08T02:43:58;11.43;;;4.70;;
56911;SDS011;42800;53.928;27.662;2023-09-08T02:46:24;8.38;;;3.65;;
56911;SDS011;42800;53.928;27.662;2023-09-08T02:48:50;7.57;;;3.72;;
56911;SDS011;42800;53.928;27.662;2023-09-08T02:51:17;14.52;;;4.20;;
56911;SDS011;42800;53.928;27.662;2023-09-08T02:53:43;11.63;;;5.28;;
56911;SDS011;42800;53.928;27.662;2023-09-08T02:56:09;14.63;;;5.75;;
56911;SDS011;42800;53.928;27.662;2023-09-08T02:58:35;16.10;;;5.20;;
56911;SDS011;42800;53.928;27.662;2023-09-08T03:01:09;21.30;;;5.53;;
56911;SDS011;42800;53.928;27.662;2023-09-08T03:03:36;8.45;;;4.05;;
56911;SDS011;42800;53.928;27.662;2023-09-08T03:06:02;11.32;;;3.80;;
56911;SDS011;42800;53.928;27.662;2023-09-08T03:08:29;17.52;;;5.72;;
56911;SDS011;42800;53.928;27.662;2023-09-08T03:10:55;30.55;;;6.68;;
56911;SDS011;42800;53.928;27.662;2023-09-08T03:13:22;15.30;;;5.25;;
56911;SDS011;42800;53.928;27.662;2023-09-08T03:15:48;18.13;;;5.38;;
56911;SDS011;42800;53.928;27.662;2023-09-08T03:18:14;8.88;;;4.60;;
56911;SDS011;42800;53.928;27.662;2023-09-08T03:20:39;12.48;;;4.60;;
56911;SDS011;42800;53.928;27.662;2023-09-08T03:23:05;10.10;;;4.45;;
56911;SDS011;42800;53.928;27.662;2023-09-08T03:25:32;12.68;;;5.03;;
56911;SDS011;42800;53.928;27.662;2023-09-08T03:27:58;30.85;;;6.88;;
56911;SDS011;42800;53.928;27.662;2023-09-08T03:30:24;26.52;;;7.00;;
56911;SDS011;42800;53.928;27.662;2023-09-08T03:32:50;20.65;;;5.68;;
56911;SDS011;42800;53.928;27.662;2023-09-08T03:35:15;12.38;;;4.97;;
56911;SDS011;42800;53.928;27.662;2023-09-08T03:37:41;12.77;;;4.88;;
56911;SDS011;42800;53.928;27.662;2023-09-08T03:40:08;9.05;;;4.32;;
56911;SDS011;42800;53.928;27.662;2023-09-08T03:42:35;26.83;;;4.63;;
56911;SDS011;42800;53.928;27.662;2023-09-08T03:45:01;7.63;;;4.60;;
56911;SDS011;42800;53.928;27.662;2023-09-08T03:47:27;11.30;;;4.72;;
56911;SDS011;42800;53.928;27.662;2023-09-08T03:49:53;11.27;;;4.45;;
56911;SDS011;42800;53.928;27.662;2023-09-08T03:52:19;11.95;;;5.35;;
56911;SDS011;42800;53.928;27.662;2023-09-08T03:54:45;7.05;;;4.47;;
56911;SDS011;42800;53.928;27.662;2023-09-08T03:57:11;23.85;;;4.43;;
56911;SDS011;42800;53.928;27.662;2023-09-08T03:59:38;37.53;;;6.13;;
56911;SDS011;42800;53.928;27.662;2023-09-08T04:02:04;14.68;;;5.38;;
56911;SDS011;42800;53.928;27.662;2023-09-08T04:04:29;17.95;;;5.13;;
56911;SDS011;42800;53.928;27.662;2023-09-08T04:06:55;16.60;;;5.60;;
56911;SDS011;42800;53.928;27.662;2023-09-08T04:09:21;19.90;;;5.65;;
56911;SDS011;42800;53.928;27.662;2023-09-08T04:11:47;12.85;;;4.70;;
56911;SDS011;42800;53.928;27.662;2023-09-08T04:14:13;12.18;;;4.70;;
56911;SDS011;42800;53.928;27.662;2023-09-08T04:16:40;19.63;;;4.78;;
56911;SDS011;42800;53.928;27.662;2023-09-08T04:19:06;9.40;;;4.30;;
56911;SDS011;42800;53.928;27.662;2023-09-08T04:21:31;10.07;;;4.50;;
56911;SDS011;42800;53.928;27.662;2023-09-08T04:23:57;25.08;;;4.68;;
56911;SDS011;42800;53.928;27.662;2023-09-08T04:26:23;14.35;;;4.13;;
56911;SDS011;42800;53.928;27.662;2023-09-08T04:28:50;11.85;;;4.47;;
56911;SDS011;42800;53.928;27.662;2023-09-08T04:31:15;16.23;;;5.10;;
56911;SDS011;42800;53.928;27.662;2023-09-08T04:33:43;10.70;;;4.03;;
56911;SDS011;42800;53.928;27.662;2023-09-08T04:36:09;23.60;;;5.95;;
56911;SDS011;42800;53.928;27.662;2023-09-08T04:38:36;14.00;;;6.20;;
56911;SDS011;42800;53.928;27.662;2023-09-08T04:41:02;11.95;;;4.47;;
56911;SDS011;42800;53.928;27.662;2023-09-08T04:43:27;19.40;;;4.00;;
56911;SDS011;42800;53.928;27.662;2023-09-08T04:45:53;12.70;;;3.92;;
56911;SDS011;42800;53.928;27.662;2023-09-08T04:48:19;18.50;;;4.55;;
56911;SDS011;42800;53.928;27.662;2023-09-08T04:50:46;10.50;;;3.90;;
56911;SDS011;42800;53.928;27.662;2023-09-08T04:53:12;6.22;;;4.03;;
56911;SDS011;42800;53.928;27.662;2023-09-08T04:55:38;13.23;;;4.85;;
56911;SDS011;42800;53.928;27.662;2023-09-08T04:58:04;15.20;;;5.70;;
56911;SDS011;42800;53.928;27.662;2023-09-08T05:00:29;10.65;;;4.57;;
56911;SDS011;42800;53.928;27.662;2023-09-08T05:02:56;14.90;;;4.55;;
56911;SDS011;42800;53.928;27.662;2023-09-08T05:05:22;10.27;;;4.53;;
56911;SDS011;42800;53.928;27.662;2023-09-08T05:07:48;13.73;;;4.10;;
56911;SDS011;42800;53.928;27.662;2023-09-08T05:10:14;12.95;;;4.47;;
56911;SDS011;42800;53.928;27.662;2023-09-08T05:12:40;9.15;;;4.00;;
56911;SDS011;42800;53.928;27.662;2023-09-08T05:15:06;12.45;;;6.90;;
56911;SDS011;42800;53.928;27.662;2023-09-08T05:17:39;11.00;;;6.23;;
56911;SDS011;42800;53.928;27.662;2023-09-08T05:20:06;10.15;;;4.47;;
56911;SDS011;42800;53.928;27.662;2023-09-08T05:22:32;13.45;;;4.57;;
56911;SDS011;42800;53.928;27.662;2023-09-08T05:24:59;16.75;;;6.40;;
56911;SDS011;42800;53.928;27.662;2023-09-08T05:27:25;15.18;;;4.57;;
56911;SDS011;42800;53.928;27.662;2023-09-08T05:29:51;9.98;;;3.97;;
56911;SDS011;42800;53.928;27.662;2023-09-08T05:32:17;9.43;;;4.53;;
56911;SDS011;42800;53.928;27.662;2023-09-08T05:34:43;9.15;;;4.20;;
56911;SDS011;42800;53.928;27.662;2023-09-08T05:37:09;11.82;;;5.80;;
56911;SDS011;42800;53.928;27.662;2023-09-08T05:39:35;12.02;;;3.70;;
56911;SDS011;42800;53.928;27.662;2023-09-08T05:42:02;13.98;;;5.80;;
56911;SDS011;42800;53.928;27.662;2023-09-08T05:44:28;6.88;;;4.53;;
56911;SDS011;42800;53.928;27.662;2023-09-08T05:46:54;59.70;;;7.40;;
56911;SDS011;42800;53.928;27.662;2023-09-08T05:49:20;10.60;;;4.00;;
56911;SDS011;42800;53.928;27.662;2023-09-08T05:51:46;11.25;;;3.72;;
56911;SDS011;42800;53.928;27.662;2023-09-08T05:54:12;14.32;;;3.30;;
56911;SDS011;42800;53.928;27.662;2023-09-08T05:56:38;8.38;;;2.90;;
56911;SDS011;42800;53.928;27.662;2023-09-08T05:59:05;4.35;;;2.78;;
56911;SDS011;42800;53.928;27.662;2023-09-08T06:01:31;5.30;;;2.20;;
56911;SDS011;42800;53.928;27.662;2023-09-08T06:03:57;5.47;;;2.20;;
56911;SDS011;42800;53.928;27.662;2023-09-08T06:06:23;5.70;;;2.25;;
56911;SDS011;42800;53.928;27.662;2023-09-08T06:08:51;13.90;;;4.43;;
56911;SDS011;42800;53.928;27.662;2023-09-08T06:11:17;4.82;;;2.35;;
56911;SDS011;42800;53.928;27.662;2023-09-08T06:13:43;9.10;;;2.97;;
56911;SDS011;42800;53.928;27.662;2023-09-08T06:16:09;4.53;;;2.58;;
56911;SDS011;42800;53.928;27.662;2023-09-08T06:18:35;6.65;;;1.92;;
56911;SDS011;42800;53.928;27.662;2023-09-08T06:21:05;10.07;;;3.22;;
56911;SDS011;42800;53.928;27.662;2023-09-08T06:23:31;5.78;;;2.70;;
56911;SDS011;42800;53.928;27.662;2023-09-08T06:25:57;6.70;;;2.70;;
56911;SDS011;42800;53.928;27.662;2023-09-08T06:28:25;9.63;;;3.28;;
56911;SDS011;42800;53.928;27.662;2023-09-08T06:30:51;6.03;;;2.75;;
56911;SDS011;42800;53.928;27.662;2023-09-08T06:33:17;6.15;;;3.30;;
56911;SDS011;42800;53.928;27.662;2023-09-08T06:35:43;9.40;;;3.00;;
56911;SDS011;42800;53.928;27.662;2023-09-08T06:38:09;10.57;;;2.97;;
56911;SDS011;42800;53.928;27.662;2023-09-08T06:40:35;9.18;;;2.47;;
56911;SDS011;42800;53.928;27.662;2023-09-08T06:43:01;8.18;;;4.63;;
56911;SDS011;42800;53.928;27.662;2023-09-08T06:45:27;9.93;;;3.17;;
56911;SDS011;42800;53.928;27.662;2023-09-08T06:47:53;7.07;;;2.60;;
56911;SDS011;42800;53.928;27.662;2023-09-08T06:50:20;5.47;;;1.88;;
56911;SDS011;42800;53.928;27.662;2023-09-08T06:52:47;5.18;;;2.50;;
56911;SDS011;42800;53.928;27.662;2023-09-08T06:55:12;8.35;;;1.70;;
56911;SDS011;42800;53.928;27.662;2023-09-08T06:57:41;2.67;;;1.40;;
56911;SDS011;42800;53.928;27.662;2023-09-08T07:00:07;9.48;;;2.45;;
56911;SDS011;42800;53.928;27.662;2023-09-08T07:02:36;5.25;;;2.10;;
56911;SDS011;42800;53.928;27.662;2023-09-08T07:05:02;5.38;;;1.90;;
56911;SDS011;42800;53.928;27.662;2023-09-08T07:07:33;4.22;;;1.75;;
56911;SDS011;42800;53.928;27.662;2023-09-08T07:10:02;2.78;;;1.63;;
56911;SDS011;42800;53.928;27.662;2023-09-08T07:12:29;6.50;;;2.00;;
56911;SDS011;42800;53.928;27.662;2023-09-08T07:14:55;9.82;;;1.85;;
56911;SDS011;42800;53.928;27.662;2023-09-08T07:17:22;4.60;;;1.50;;
56911;SDS011;42800;53.928;27.662;2023-09-08T07:19:48;4.95;;;1.60;;
56911;SDS011;42800;53.928;27.662;2023-09-08T07:22:14;5.43;;;2.20;;
56911;SDS011;42800;53.928;27.662;2023-09-08T07:24:41;6.18;;;2.42;;
56911;SDS011;42800;53.928;27.662;2023-09-08T07:27:07;6.00;;;2.25;;
56911;SDS011;42800;53.928;27.662;2023-09-08T07:29:33;7.28;;;2.50;;
56911;SDS011;42800;53.928;27.662;2023-09-08T07:31:59;7.30;;;2.50;;
56911;SDS011;42800;53.928;27.662;2023-09-08T07:34:25;8.25;;;1.48;;
56911;SDS011;42800;53.928;27.662;2023-09-08T07:36:51;3.63;;;1.45;;
56911;SDS011;42800;53.928;27.662;2023-09-08T07:39:17;4.13;;;2.05;;
56911;SDS011;42800;53.928;27.662;2023-09-08T07:41:43;7.15;;;2.38;;
56911;SDS011;42800;53.928;27.662;2023-09-08T07:44:09;5.40;;;2.50;;
56911;SDS011;42800;53.928;27.662;2023-09-08T07:46:35;4.78;;;1.40;;
56911;SDS011;42800;53.928;27.662;2023-09-08T07:49:01;8.73;;;2.38;;
56911;SDS011;42800;53.928;27.662;2023-09-08T07:51:28;9.25;;;2.33;;
56911;SDS011;42800;53.928;27.662;2023-09-08T07:53:54;15.00;;;2.15;;
56911;SDS011;42800;53.928;27.662;2023-09-08T07:56:21;7.95;;;2.95;;
56911;SDS011;42800;53.928;27.662;2023-09-08T07:58:48;4.28;;;2.70;;
56911;SDS011;42800;53.928;27.662;2023-09-08T08:01:14;7.95;;;2.20;;
56911;SDS011;42800;53.928;27.662;2023-09-08T08:03:40;6.30;;;2.45;;
56911;SDS011;42800;53.928;27.662;2023-09-08T08:06:06;11.95;;;2.88;;
56911;SDS011;42800;53.928;27.662;2023-09-08T08:08:33;11.95;;;2.35;;
56911;SDS011;42800;53.928;27.662;2023-09-08T08:11:03;7.25;;;1.50;;
56911;SDS011;42800;53.928;27.662;2023-09-08T08:13:35;6.28;;;1.80;;
56911;SDS011;42800;53.928;27.662;2023-09-08T08:16:02;12.13;;;2.20;;
56911;SDS011;42800;53.928;27.662;2023-09-08T08:18:27;9.00;;;3.22;;
56911;SDS011;42800;53.928;27.662;2023-09-08T08:20:53;12.55;;;3.20;;
56911;SDS011;42800;53.928;27.662;2023-09-08T08:23:19;8.43;;;2.38;;
56911;SDS011;42800;53.928;27.662;2023-09-08T08:25:45;12.60;;;2.90;;
56911;SDS011;42800;53.928;27.662;2023-09-08T08:28:11;11.75;;;2.95;;
56911;SDS011;42800;53.928;27.662;2023-09-08T08:30:37;10.60;;;3.13;;
56911;SDS011;42800;53.928;27.662;2023-09-08T08:33:04;7.55;;;2.78;;
56911;SDS011;42800;53.928;27.662;2023-09-08T08:35:30;12.40;;;2.30;;
56911;SDS011;42800;53.928;27.662;2023-09-08T08:37:57;6.78;;;2.60;;
56911;SDS011;42800;53.928;27.662;2023-09-08T08:40:24;9.40;;;2.78;;
56911;SDS011;42800;53.928;27.662;2023-09-08T08:42:53;4.38;;;2.00;;
56911;SDS011;42800;53.928;27.662;2023-09-08T08:45:20;5.18;;;1.95;;
56911;SDS011;42800;53.928;27.662;2023-09-08T08:47:49;7.47;;;2.55;;
56911;SDS011;42800;53.928;27.662;2023-09-08T08:50:15;6.00;;;1.83;;
56911;SDS011;42800;53.928;27.662;2023-09-08T08:52:42;7.90;;;2.30;;
56911;SDS011;42800;53.928;27.662;2023-09-08T08:55:09;10.48;;;2.65;;
56911;SDS011;42800;53.928;27.662;2023-09-08T08:57:36;7.18;;;2.20;;
56911;SDS011;42800;53.928;27.662;2023-09-08T09:00:03;8.40;;;2.10;;
56911;SDS011;42800;53.928;27.662;2023-09-08T09:02:33;7.28;;;2.00;;
56911;SDS011;42800;53.928;27.662;2023-09-08T09:05:01;4.95;;;2.00;;
56911;SDS011;42800;53.928;27.662;2023-09-08T09:07:28;7.93;;;1.90;;
56911;SDS011;42800;53.928;27.662;2023-09-08T09:09:54;5.05;;;2.20;;
56911;SDS011;42800;53.928;27.662;2023-09-08T09:12:20;3.88;;;2.10;;
56911;SDS011;42800;53.928;27.662;2023-09-08T09:14:47;8.07;;;2.28;;
56911;SDS011;42800;53.928;27.662;2023-09-08T09:17:13;5.30;;;2.00;;
56911;SDS011;42800;53.928;27.662;2023-09-08T09:19:40;6.72;;;1.80;;
56911;SDS011;42800;53.928;27.662;2023-09-08T09:22:06;4.90;;;2.05;;
56911;SDS011;42800;53.928;27.662;2023-09-08T09:24:34;8.15;;;1.88;;
56911;SDS011;42800;53.928;27.662;2023-09-08T09:27:03;5.82;;;2.00;;
56911;SDS011;42800;53.928;27.662;2023-09-08T09:29:30;2.75;;;1.60;;
56911;SDS011;42800;53.928;27.662;2023-09-08T09:31:57;10.48;;;2.35;;
56911;SDS011;42800;53.928;27.662;2023-09-08T09:34:29;5.15;;;1.75;;
56911;SDS011;42800;53.928;27.662;2023-09-08T09:36:55;7.05;;;2.10;;
56911;SDS011;42800;53.928;27.662;2023-09-08T09:39:22;8.88;;;2.08;;
56911;SDS011;42800;53.928;27.662;2023-09-08T09:41:52;4.30;;;2.10;;
56911;SDS011;42800;53.928;27.662;2023-09-08T09:44:19;4.20;;;2.20;;
56911;SDS011;42800;53.928;27.662;2023-09-08T09:46:47;12.25;;;2.03;;
56911;SDS011;42800;53.928;27.662;2023-09-08T09:49:14;4.35;;;1.95;;
56911;SDS011;42800;53.928;27.662;2023-09-08T09:51:42;11.20;;;2.20;;
56911;SDS011;42800;53.928;27.662;2023-09-08T09:54:09;5.40;;;1.67;;
56911;SDS011;42800;53.928;27.662;2023-09-08T09:56:37;6.68;;;2.05;;
56911;SDS011;42800;53.928;27.662;2023-09-08T09:59:04;5.55;;;1.80;;
56911;SDS011;42800;53.928;27.662;2023-09-08T10:01:33;4.57;;;2.00;;
56911;SDS011;42800;53.928;27.662;2023-09-08T10:04:00;6.72;;;1.70;;
56911;SDS011;42800;53.928;27.662;2023-09-08T10:06:28;5.65;;;2.10;;
56911;SDS011;42800;53.928;27.662;2023-09-08T10:08:56;5.18;;;2.25;;
56911;SDS011;42800;53.928;27.662;2023-09-08T10:11:25;4.10;;;2.00;;
56911;SDS011;42800;53.928;27.662;2023-09-08T10:13:54;5.40;;;1.65;;
56911;SDS011;42800;53.928;27.662;2023-09-08T10:16:25;6.32;;;2.70;;
56911;SDS011;42800;53.928;27.662;2023-09-08T10:18:52;9.75;;;1.95;;
56911;SDS011;42800;53.928;27.662;2023-09-08T10:21:20;6.30;;;2.10;;
56911;SDS011;42800;53.928;27.662;2023-09-08T10:23:49;4.30;;;2.17;;
56911;SDS011;42800;53.928;27.662;2023-09-08T10:26:20;11.65;;;2.42;;
56911;SDS011;42800;53.928;27.662;2023-09-08T10:28:49;4.25;;;2.25;;
56911;SDS011;42800;53.928;27.662;2023-09-08T10:31:16;6.70;;;2.83;;
56911;SDS011;42800;53.928;27.662;2023-09-08T10:33:43;9.68;;;2.38;;
56911;SDS011;42800;53.928;27.662;2023-09-08T10:36:10;9.60;;;2.28;;
56911;SDS011;42800;53.928;27.662;2023-09-08T10:38:38;3.50;;;1.85;;
56911;SDS011;42800;53.928;27.662;2023-09-08T10:43:54;6.45;;;2.83;;
56911;SDS011;42800;53.928;27.662;2023-09-08T10:46:21;9.63;;;2.70;;
56911;SDS011;42800;53.928;27.662;2023-09-08T10:48:48;16.17;;;2.10;;
56911;SDS011;42800;53.928;27.662;2023-09-08T10:51:14;5.47;;;2.58;;
56911;SDS011;42800;53.928;27.662;2023-09-08T10:53:42;10.20;;;2.22;;
56911;SDS011;42800;53.928;27.662;2023-09-08T10:56:08;7.53;;;2.47;;
56911;SDS011;42800;53.928;27.662;2023-09-08T10:58:34;8.52;;;2.08;;
56911;SDS011;42800;53.928;27.662;2023-09-08T11:01:03;7.05;;;2.08;;
56911;SDS011;42800;53.928;27.662;2023-09-08T11:03:42;6.75;;;2.30;;
56911;SDS011;42800;53.928;27.662;2023-09-08T11:06:10;3.80;;;2.20;;
56911;SDS011;42800;53.928;27.662;2023-09-08T11:08:40;4.80;;;2.20;;
56911;SDS011;42800;53.928;27.662;2023-09-08T11:11:07;6.40;;;2.92;;
56911;SDS011;42800;53.928;27.662;2023-09-08T11:13:33;9.07;;;2.10;;
56911;SDS011;42800;53.928;27.662;2023-09-08T11:15:58;10.10;;;2.30;;
56911;SDS011;42800;53.928;27.662;2023-09-08T11:18:25;3.75;;;1.88;;
56911;SDS011;42800;53.928;27.662;2023-09-08T11:20:52;9.65;;;1.90;;
56911;SDS011;42800;53.928;27.662;2023-09-08T11:23:18;7.15;;;2.33;;
56911;SDS011;42800;53.928;27.662;2023-09-08T11:25:46;7.38;;;2.88;;
56911;SDS011;42800;53.928;27.662;2023-09-08T11:28:12;3.33;;;1.65;;
56911;SDS011;42800;53.928;27.662;2023-09-08T11:30:38;7.70;;;1.67;;
56911;SDS011;42800;53.928;27.662;2023-09-08T11:33:05;2.95;;;1.20;;
56911;SDS011;42800;53.928;27.662;2023-09-08T11:35:39;4.82;;;1.55;;
56911;SDS011;42800;53.928;27.662;2023-09-08T11:38:05;4.30;;;1.48;;
56911;SDS011;42800;53.928;27.662;2023-09-08T11:40:32;8.02;;;3.70;;
56911;SDS011;42800;53.928;27.662;2023-09-08T11:42:59;3.95;;;1.35;;
56911;SDS011;42800;53.928;27.662;2023-09-08T11:45:25;14.35;;;1.60;;
56911;SDS011;42800;53.928;27.662;2023-09-08T11:47:52;7.25;;;1.30;;
56911;SDS011;42800;53.928;27.662;2023-09-08T11:50:19;5.93;;;1.60;;
56911;SDS011;42800;53.928;27.662;2023-09-08T11:52:45;3.75;;;1.52;;
56911;SDS011;42800;53.928;27.662;2023-09-08T11:55:12;4.05;;;1.60;;
56911;SDS011;42800;53.928;27.662;2023-09-08T11:57:39;7.22;;;1.40;;
56911;SDS011;42800;53.928;27.662;2023-09-08T12:00:06;4.45;;;1.58;;
56911;SDS011;42800;53.928;27.662;2023-09-08T12:02:35;3.17;;;1.58;;
56911;SDS011;42800;53.928;27.662;2023-09-08T12:05:02;5.13;;;1.95;;
56911;SDS011;42800;53.928;27.662;2023-09-08T12:07:28;7.03;;;2.60;;
56911;SDS011;42800;53.928;27.662;2023-09-08T12:09:54;3.58;;;1.70;;
56911;SDS011;42800;53.928;27.662;2023-09-08T12:12:20;3.75;;;1.90;;
56911;SDS011;42800;53.928;27.662;2023-09-08T12:14:46;4.00;;;1.80;;
56911;SDS011;42800;53.928;27.662;2023-09-08T12:17:12;8.90;;;2.05;;
56911;SDS011;42800;53.928;27.662;2023-09-08T12:19:42;5.25;;;1.88;;
56911;SDS011;42800;53.928;27.662;2023-09-08T12:22:08;10.35;;;1.92;;
56911;SDS011;42800;53.928;27.662;2023-09-08T12:24:46;3.10;;;1.60;;
56911;SDS011;42800;53.928;27.662;2023-09-08T12:27:13;6.55;;;1.75;;
56911;SDS011;42800;53.928;27.662;2023-09-08T12:29:39;10.18;;;2.72;;
56911;SDS011;42800;53.928;27.662;2023-09-08T12:32:06;6.38;;;1.75;;
56911;SDS011;42800;53.928;27.662;2023-09-08T12:34:32;6.72;;;2.05;;
56911;SDS011;42800;53.928;27.662;2023-09-08T12:36:58;5.20;;;1.63;;
56911;SDS011;42800;53.928;27.662;2023-09-08T12:39:24;9.02;;;2.05;;
56911;SDS011;42800;53.928;27.662;2023-09-08T12:41:49;9.02;;;1.67;;
56911;SDS011;42800;53.928;27.662;2023-09-08T12:44:15;2.83;;;1.60;;
56911;SDS011;42800;53.928;27.662;2023-09-08T12:46:41;7.65;;;2.45;;
56911;SDS011;42800;53.928;27.662;2023-09-08T12:49:08;3.83;;;1.40;;
56911;SDS011;42800;53.928;27.662;2023-09-08T12:51:34;9.60;;;2.30;;
56911;SDS011;42800;53.928;27.662;2023-09-08T12:54:00;7.72;;;1.70;;
56911;SDS011;42800;53.928;27.662;2023-09-08T12:56:26;7.75;;;2.03;;
56911;SDS011;42800;53.928;27.662;2023-09-08T12:58:52;11.45;;;2.05;;
56911;SDS011;42800;53.928;27.662;2023-09-08T13:01:18;9.68;;;1.80;;
56911;SDS011;42800;53.928;27.662;2023-09-08T13:03:44;3.95;;;1.63;;
56911;SDS011;42800;53.928;27.662;2023-09-08T13:06:11;3.38;;;1.48;;
56911;SDS011;42800;53.928;27.662;2023-09-08T13:08:37;5.38;;;1.38;;
56911;SDS011;42800;53.928;27.662;2023-09-08T13:11:03;9.57;;;1.70;;
56911;SDS011;42800;53.928;27.662;2023-09-08T13:13:29;6.28;;;2.30;;
56911;SDS011;42800;53.928;27.662;2023-09-08T13:15:55;4.60;;;1.80;;
56911;SDS011;42800;53.928;27.662;2023-09-08T13:18:21;2.58;;;1.27;;
56911;SDS011;42800;53.928;27.662;2023-09-08T13:20:47;5.60;;;1.35;;
56911;SDS011;42800;53.928;27.662;2023-09-08T13:23:14;2.05;;;1.50;;
56911;SDS011;42800;53.928;27.662;2023-09-08T13:25:40;1.98;;;1.42;;
56911;SDS011;42800;53.928;27.662;2023-09-08T13:28:06;4.32;;;1.52;;
56911;SDS011;42800;53.928;27.662;2023-09-08T13:30:32;7.22;;;1.83;;
56911;SDS011;42800;53.928;27.662;2023-09-08T13:32:58;1.88;;;1.50;;
56911;SDS011;42800;53.928;27.662;2023-09-08T13:35:24;2.38;;;1.80;;
56911;SDS011;42800;53.928;27.662;2023-09-08T13:37:50;9.27;;;2.50;;
56911;SDS011;42800;53.928;27.662;2023-09-08T13:40:17;7.82;;;2.40;;
56911;SDS011;42800;53.928;27.662;2023-09-08T13:42:43;5.03;;;1.60;;
56911;SDS011;42800;53.928;27.662;2023-09-08T13:45:10;8.10;;;1.60;;
56911;SDS011;42800;53.928;27.662;2023-09-08T13:47:36;5.95;;;1.83;;
56911;SDS011;42800;53.928;27.662;2023-09-08T13:50:03;8.13;;;1.60;;
56911;SDS011;42800;53.928;27.662;2023-09-08T13:52:30;3.78;;;1.58;;
56911;SDS011;42800;53.928;27.662;2023-09-08T13:54:56;4.13;;;1.83;;
56911;SDS011;42800;53.928;27.662;2023-09-08T13:57:22;2.95;;;1.80;;
56911;SDS011;42800;53.928;27.662;2023-09-08T13:59:50;2.05;;;1.70;;
56911;SDS011;42800;53.928;27.662;2023-09-08T14:02:16;7.43;;;1.65;;
56911;SDS011;42800;53.928;27.662;2023-09-08T14:04:42;5.80;;;1.98;;
56911;SDS011;42800;53.928;27.662;2023-09-08T14:07:08;9.18;;;1.92;;
56911;SDS011;42800;53.928;27.662;2023-09-08T14:09:34;3.97;;;1.85;;
56911;SDS011;42800;53.928;27.662;2023-09-08T14:12:01;7.40;;;2.30;;
56911;SDS011;42800;53.928;27.662;2023-09-08T14:14:27;3.88;;;1.85;;
56911;SDS011;42800;53.928;27.662;2023-09-08T14:16:53;8.25;;;2.03;;
56911;SDS011;42800;53.928;27.662;2023-09-08T14:19:19;8.82;;;2.08;;
56911;SDS011;42800;53.928;27.662;2023-09-08T14:21:45;6.75;;;2.08;;
56911;SDS011;42800;53.928;27.662;2023-09-08T14:24:11;4.47;;;1.77;;
56911;SDS011;42800;53.928;27.662;2023-09-08T14:26:37;5.03;;;1.70;;